createdAt,value
2019-06-08T00:01:00.820Z,95.80
2019-06-08T00:03:29.028Z,95.90
2019-06-08T00:05:57.239Z,96.00
2019-06-08T00:08:25.453Z,96.00
2019-06-08T00:10:53.647Z,96.10
2019-06-08T00:13:23.223Z,96.20
2019-06-08T00:15:51.498Z,96.10
2019-06-08T00:18:19.696Z,96.30
2019-06-08T00:20:47.904Z,96.10
2019-06-08T00:23:16.105Z,96.10
2019-06-08T00:25:44.317Z,96.10
2019-06-08T00:28:12.504Z,96.10
2019-06-08T00:30:41.459Z,96.20
2019-06-08T00:33:09.796Z,96.40
2019-06-08T00:35:37.999Z,96.50
2019-06-08T00:38:06.193Z,96.40
2019-06-08T00:40:34.412Z,96.30
2019-06-08T00:43:02.606Z,96.60
2019-06-08T00:45:30.809Z,96.70
2019-06-08T00:47:59.032Z,96.50
2019-06-08T00:50:27.242Z,96.30
2019-06-08T00:52:55.433Z,96.80
2019-06-08T00:55:23.811Z,96.70
2019-06-08T00:57:52.024Z,96.50
2019-06-08T01:00:20.494Z,96.40
2019-06-08T01:02:48.712Z,96.60
2019-06-08T01:05:17.818Z,96.90
2019-06-08T01:07:46.100Z,96.80
2019-06-08T01:10:14.677Z,96.70
2019-06-08T01:12:42.872Z,96.60
2019-06-08T01:15:12.059Z,96.80
2019-06-08T01:17:40.320Z,97.00
2019-06-08T01:20:08.544Z,96.60
2019-06-08T01:22:36.754Z,96.60
2019-06-08T01:25:05.421Z,96.70
2019-06-08T01:27:33.633Z,96.20
2019-06-08T01:30:01.834Z,95.80
2019-06-08T01:32:30.591Z,94.70
2019-06-08T01:34:58.826Z,94.60
2019-06-08T01:37:27.086Z,94.40
2019-06-08T01:39:55.317Z,94.10
2019-06-08T01:42:23.520Z,93.60
2019-06-08T01:44:51.736Z,93.20
2019-06-08T01:47:19.941Z,93.10
2019-06-08T01:49:48.142Z,92.80
2019-06-08T01:52:16.353Z,92.10
2019-06-08T01:54:44.558Z,92.20
2019-06-08T01:57:12.763Z,92.20
2019-06-08T01:59:40.961Z,92.60
2019-06-08T02:02:09.169Z,91.70
2019-06-08T02:04:37.368Z,91.50
2019-06-08T02:07:05.576Z,91.70
2019-06-08T02:09:34.878Z,91.70
2019-06-08T02:12:03.173Z,91.80
2019-06-08T02:14:31.381Z,91.70
2019-06-08T02:16:59.581Z,91.60
2019-06-08T02:19:28.393Z,91.50
2019-06-08T02:21:56.570Z,91.80
2019-06-08T02:24:24.773Z,91.40
2019-06-08T02:26:52.984Z,91.50
2019-06-08T02:29:21.180Z,92.30
2019-06-08T02:31:49.447Z,91.70
2019-06-08T02:34:17.764Z,91.40
2019-06-08T02:36:45.961Z,91.60
2019-06-08T02:39:14.160Z,91.70
2019-06-08T02:41:42.366Z,91.40
2019-06-08T02:44:10.596Z,91.40
2019-06-08T02:46:40.390Z,91.10
2019-06-08T02:49:08.869Z,91.20
2019-06-08T02:51:38.053Z,91.20
2019-06-08T02:54:06.556Z,91.40
2019-06-08T02:56:36.670Z,91.20
2019-06-08T02:59:04.829Z,91.40
2019-06-08T03:01:36.695Z,91.20
2019-06-08T03:04:05.862Z,91.20
2019-06-08T03:06:34.712Z,91.10
2019-06-08T03:09:04.903Z,91.20
2019-06-08T03:11:34.838Z,91.30
2019-06-08T03:14:03.166Z,91.80
2019-06-08T03:16:31.909Z,91.30
2019-06-08T03:19:20.036Z,91.50
2019-06-08T03:21:31.480Z,91.30
2019-06-08T03:23:59.770Z,91.40
2019-06-08T03:26:27.962Z,91.70
2019-06-08T03:28:56.169Z,91.30
2019-06-08T03:31:24.546Z,91.50
2019-06-08T03:33:55.630Z,91.90
2019-06-08T03:36:22.670Z,91.40
2019-06-08T03:38:50.890Z,91.40
2019-06-08T03:41:19.088Z,91.50
2019-06-08T03:43:47.300Z,91.90
2019-06-08T03:46:15.496Z,91.70
2019-06-08T03:48:45.850Z,91.30
2019-06-08T03:51:13.626Z,91.50
2019-06-08T03:53:42.639Z,91.40
2019-06-08T03:56:11.740Z,91.90
2019-06-08T03:58:40.606Z,91.90
2019-06-08T04:01:09.874Z,91.80
2019-06-08T04:03:39.759Z,91.80
2019-06-08T04:06:07.993Z,91.80
2019-06-08T04:08:37.852Z,91.90
2019-06-08T04:11:06.282Z,92.30
2019-06-08T04:13:34.485Z,92.10
2019-06-08T04:16:02.707Z,91.90
2019-06-08T04:18:30.910Z,91.90
2019-06-08T04:20:59.105Z,91.90
2019-06-08T04:23:27.315Z,92.10
2019-06-08T04:25:55.518Z,92.10
2019-06-08T04:28:23.718Z,92.10
2019-06-08T04:30:51.919Z,92.20
2019-06-08T04:33:20.132Z,92.10
2019-06-08T04:35:48.333Z,92.10
2019-06-08T04:38:16.549Z,92.00
2019-06-08T04:40:45.958Z,92.40
2019-06-08T04:43:14.658Z,92.20
2019-06-08T04:45:43.587Z,92.20
2019-06-08T04:48:12.802Z,92.20
2019-06-08T04:50:42.787Z,92.50
2019-06-08T04:53:10.938Z,92.20
2019-06-08T04:55:40.797Z,92.40
2019-06-08T04:58:09.228Z,92.30
2019-06-08T05:00:39.033Z,92.70
2019-06-08T05:03:07.371Z,92.40
2019-06-08T05:05:35.577Z,92.90
2019-06-08T05:08:03.774Z,93.10
2019-06-08T05:10:32.034Z,92.70
2019-06-08T05:13:00.253Z,92.90
2019-06-08T05:15:28.459Z,92.80
2019-06-08T05:17:56.652Z,92.60
2019-06-08T05:20:38.323Z,92.90
2019-06-08T05:22:54.786Z,93.00
2019-06-08T05:25:22.995Z,93.30
2019-06-08T05:27:51.193Z,93.60
2019-06-08T05:30:19.400Z,93.50
2019-06-08T05:32:47.645Z,93.70
2019-06-08T05:35:15.896Z,93.30
2019-06-08T05:37:44.092Z,92.90
2019-06-08T05:40:12.311Z,92.90
2019-06-08T05:42:42.369Z,93.40
2019-06-08T05:45:12.077Z,93.10
2019-06-08T05:47:41.713Z,93.80
2019-06-08T05:50:09.971Z,94.00
2019-06-08T05:52:38.182Z,94.10
2019-06-08T05:55:06.657Z,94.10
2019-06-08T05:57:34.857Z,94.30
2019-06-08T06:00:08.802Z,94.40
2019-06-08T06:02:34.255Z,94.30
2019-06-08T06:05:02.467Z,93.70
2019-06-08T06:07:30.680Z,93.50
2019-06-08T06:09:58.953Z,93.60
2019-06-08T06:12:27.145Z,94.20
2019-06-08T06:14:55.350Z,94.20
2019-06-08T06:17:23.557Z,93.90
2019-06-08T06:19:51.760Z,94.40
2019-06-08T06:22:20.031Z,94.80
2019-06-08T06:24:48.237Z,94.40
2019-06-08T06:27:17.200Z,94.90
2019-06-08T06:29:45.584Z,95.00
2019-06-08T06:32:13.809Z,94.70
2019-06-08T06:34:42.067Z,94.90
2019-06-08T06:37:10.312Z,94.30
2019-06-08T06:39:38.525Z,94.20
2019-06-08T06:42:06.746Z,94.70
2019-06-08T06:44:34.954Z,94.90
2019-06-08T06:47:03.169Z,95.10
2019-06-08T06:49:31.415Z,94.70
2019-06-08T06:51:59.661Z,95.10
2019-06-08T06:54:27.876Z,94.50
2019-06-08T06:56:56.098Z,94.50
2019-06-08T06:59:24.305Z,94.30
2019-06-08T07:01:56.969Z,92.40
2019-06-08T07:04:24.256Z,92.70
2019-06-08T07:06:52.482Z,93.00
2019-06-08T07:09:20.689Z,92.90
2019-06-08T07:11:48.905Z,93.40
2019-06-08T07:14:17.105Z,93.40
2019-06-08T07:16:45.819Z,94.10
2019-06-08T07:19:14.101Z,93.50
2019-06-08T07:21:46.045Z,93.10
2019-06-08T07:24:14.334Z,93.30
2019-06-08T07:26:42.538Z,93.40
2019-06-08T07:29:10.764Z,92.80
2019-06-08T07:31:39.033Z,93.10
2019-06-08T07:34:07.232Z,93.00
2019-06-08T07:36:35.525Z,93.30
2019-06-08T07:39:05.123Z,93.90
2019-06-08T07:41:33.347Z,93.20
2019-06-08T07:44:01.554Z,93.30
2019-06-08T07:46:29.777Z,92.30
2019-06-08T07:48:58.635Z,92.70
2019-06-08T07:51:26.879Z,92.40
2019-06-08T07:53:55.763Z,92.80
2019-06-08T07:56:24.165Z,93.20
2019-06-08T07:58:53.233Z,92.00
2019-06-08T08:01:35.352Z,91.90
2019-06-08T08:03:52.140Z,91.50
2019-06-08T08:06:20.476Z,91.80
2019-06-08T08:08:48.685Z,92.10
2019-06-08T08:11:16.910Z,92.20
2019-06-08T08:13:45.133Z,91.30
2019-06-08T08:16:13.412Z,91.20
2019-06-08T08:18:41.617Z,90.90
2019-06-08T08:21:21.382Z,90.70
2019-06-08T08:23:39.773Z,91.60
2019-06-08T08:26:07.981Z,91.70
2019-06-08T08:28:37.532Z,92.00
2019-06-08T08:31:07.896Z,90.70
2019-06-08T08:33:37.859Z,91.30
2019-06-08T08:36:07.277Z,90.90
2019-06-08T08:38:38.182Z,86.90
2019-06-08T08:41:08.298Z,87.30
2019-06-08T08:43:37.546Z,86.50
2019-06-08T08:46:07.522Z,88.70
2019-06-08T08:48:37.584Z,87.10
2019-06-08T08:51:05.278Z,84.50
2019-06-08T08:53:33.474Z,83.50
2019-06-08T08:56:02.469Z,84.70
2019-06-08T08:58:30.869Z,84.40
2019-06-08T09:01:01.553Z,84.00
2019-06-08T09:03:33.260Z,81.20
2019-06-08T09:06:02.560Z,78.90
2019-06-08T09:08:29.784Z,78.80
2019-06-08T09:11:00.840Z,78.10
2019-06-08T09:13:28.367Z,80.10
2019-06-08T09:15:58.506Z,81.40
2019-06-08T09:18:28.551Z,77.10
2019-06-08T09:20:58.917Z,78.00
2019-06-08T09:23:28.017Z,77.30
2019-06-08T09:26:04.260Z,79.20
2019-06-08T09:28:28.371Z,78.30
2019-06-08T09:30:59.019Z,78.50
2019-06-08T09:33:28.647Z,78.10
2019-06-08T09:35:59.968Z,76.00
2019-06-08T09:38:28.500Z,74.70
2019-06-08T09:40:59.529Z,74.70
2019-06-08T09:43:28.759Z,73.90
2019-06-08T09:45:58.742Z,73.90
2019-06-08T09:48:25.701Z,73.70
2019-06-08T09:50:55.080Z,75.10
2019-06-08T09:53:31.911Z,72.10
2019-06-08T09:55:54.708Z,72.50
2019-06-08T09:58:23.321Z,69.10
2019-06-08T10:00:51.519Z,68.70
2019-06-08T10:03:19.742Z,73.20
2019-06-08T10:05:48.432Z,67.50
2019-06-08T10:08:20.318Z,70.20
2019-06-08T10:10:48.416Z,72.00
2019-06-08T10:13:18.711Z,70.20
2019-06-08T10:15:51.194Z,65.40
2019-06-08T10:18:17.681Z,68.90
2019-06-08T10:20:48.042Z,69.40
2019-06-08T10:23:28.097Z,68.00
2019-06-08T10:25:47.999Z,69.00
2019-06-08T10:28:20.777Z,66.20
2019-06-08T10:30:48.302Z,64.40
2019-06-08T10:33:18.242Z,61.50
2019-06-08T10:35:47.861Z,63.60
2019-06-08T10:38:17.920Z,67.10
2019-06-08T10:41:06.433Z,61.50
2019-06-08T10:43:30.855Z,61.10
2019-06-08T10:46:03.074Z,58.70
2019-06-08T10:48:29.473Z,57.80
2019-06-08T10:50:58.582Z,58.00
2019-06-08T10:53:29.752Z,59.60
2019-06-08T10:55:58.266Z,59.50
2019-06-08T10:58:28.397Z,57.90
2019-06-08T11:00:59.706Z,58.80
2019-06-08T11:03:30.420Z,55.00
2019-06-08T11:05:59.169Z,55.70
2019-06-08T11:08:27.504Z,52.70
2019-06-08T11:10:57.954Z,55.70
2019-06-08T11:13:28.129Z,54.10
2019-06-08T11:15:58.061Z,54.20
2019-06-08T11:18:28.511Z,55.50
2019-06-08T11:20:57.961Z,55.60
2019-06-08T11:23:25.570Z,55.20
2019-06-08T11:25:53.842Z,53.80
2019-06-08T11:28:22.057Z,53.20
2019-06-08T11:30:50.271Z,51.30
2019-06-08T11:33:18.504Z,50.00
2019-06-08T11:35:46.709Z,49.60
2019-06-08T11:38:17.491Z,50.40
2019-06-08T11:40:44.853Z,51.10
2019-06-08T11:43:13.045Z,49.40
2019-06-08T11:45:41.307Z,50.20
2019-06-08T11:48:10.838Z,48.50
2019-06-08T11:50:42.089Z,48.70
2019-06-08T11:53:14.137Z,48.00
2019-06-08T11:55:40.400Z,49.50
2019-06-08T11:58:11.846Z,50.80
2019-06-08T12:00:55.001Z,48.60
2019-06-08T12:03:23.188Z,50.90
2019-06-08T12:05:51.401Z,48.50
2019-06-08T12:08:20.856Z,48.50
2019-06-08T12:10:49.408Z,49.70
2019-06-08T12:13:17.890Z,48.60
2019-06-08T12:15:48.793Z,48.60
2019-06-08T12:18:18.119Z,48.20
2019-06-08T12:20:48.691Z,48.00
2019-06-08T12:23:16.465Z,48.50
2019-06-08T12:25:44.669Z,49.60
2019-06-08T12:28:12.877Z,46.90
2019-06-08T12:30:41.080Z,46.70
2019-06-08T12:33:09.882Z,47.50
2019-06-08T12:35:39.221Z,47.80
2019-06-08T12:38:09.595Z,48.10
2019-06-08T12:40:37.893Z,47.30
2019-06-08T12:43:09.613Z,48.30
2019-06-08T12:45:38.093Z,48.50
2019-06-08T12:48:08.869Z,48.40
2019-06-08T12:50:38.548Z,47.70
2019-06-08T12:53:12.429Z,49.10
2019-06-08T12:55:37.740Z,48.40
2019-06-08T12:58:09.383Z,48.40
2019-06-08T13:00:37.988Z,46.70
2019-06-08T13:03:08.573Z,48.70
2019-06-08T13:05:37.954Z,46.90
2019-06-08T13:08:08.406Z,46.80
2019-06-08T13:10:38.170Z,45.90
2019-06-08T13:13:08.464Z,45.40
2019-06-08T13:15:38.481Z,46.40
2019-06-08T13:18:08.515Z,46.00
2019-06-08T13:20:35.980Z,44.60
2019-06-08T13:23:04.181Z,45.20
2019-06-08T13:25:40.114Z,46.30
2019-06-08T13:28:02.307Z,47.00
2019-06-08T13:30:32.479Z,48.30
2019-06-08T13:33:00.428Z,46.90
2019-06-08T13:35:30.651Z,47.60
2019-06-08T13:37:58.568Z,45.40
2019-06-08T13:40:26.765Z,47.10
2019-06-08T13:42:54.971Z,47.70
2019-06-08T13:45:23.550Z,47.40
2019-06-08T13:47:51.757Z,47.20
2019-06-08T13:50:21.951Z,49.00
2019-06-08T13:52:49.889Z,45.50
2019-06-08T13:55:36.540Z,47.80
2019-06-08T13:57:49.136Z,46.90
2019-06-08T14:00:18.299Z,45.20
2019-06-08T14:02:48.365Z,44.90
2019-06-08T14:05:24.012Z,46.90
2019-06-08T14:07:49.955Z,45.40
2019-06-08T14:10:22.937Z,45.30
2019-06-08T14:12:51.357Z,45.70
2019-06-08T14:15:19.644Z,44.10
2019-06-08T14:17:47.856Z,44.50
2019-06-08T14:20:19.944Z,46.30
2019-06-08T14:22:50.524Z,45.20
2019-06-08T14:25:21.682Z,48.90
2019-06-08T14:27:48.664Z,48.00
2019-06-08T14:30:18.230Z,48.20
2019-06-08T14:32:47.905Z,46.10
2019-06-08T14:35:18.683Z,46.00
2019-06-08T14:37:48.068Z,48.10
2019-06-08T14:40:17.241Z,47.70
2019-06-08T14:42:45.490Z,47.70
2019-06-08T14:45:13.696Z,47.90
2019-06-08T14:47:41.897Z,48.00
2019-06-08T14:50:10.108Z,47.40
2019-06-08T14:52:38.348Z,48.50
2019-06-08T14:55:07.947Z,47.50
2019-06-08T14:57:37.496Z,48.10
2019-06-08T15:00:09.699Z,48.70
2019-06-08T15:02:37.913Z,49.40
2019-06-08T15:05:07.856Z,50.00
2019-06-08T15:07:38.685Z,49.50
2019-06-08T15:10:09.779Z,49.50
2019-06-08T15:12:38.355Z,49.40
2019-06-08T15:15:10.725Z,49.00
2019-06-08T15:17:37.968Z,51.10
2019-06-08T15:20:08.864Z,48.70
2019-06-08T15:22:38.884Z,49.10
2019-06-08T15:25:10.713Z,49.40
2019-06-08T15:27:38.972Z,52.00
2019-06-08T15:30:07.296Z,50.60
2019-06-08T15:32:38.411Z,48.90
2019-06-08T15:35:08.005Z,48.60
2019-06-08T15:37:37.945Z,48.90
2019-06-08T15:40:07.751Z,50.20
2019-06-08T15:42:36.053Z,49.10
2019-06-08T15:45:08.095Z,51.10
2019-06-08T15:47:35.414Z,50.00
2019-06-08T15:50:08.274Z,51.10
2019-06-08T15:52:38.035Z,50.40
2019-06-08T15:55:10.865Z,51.00
2019-06-08T15:57:38.758Z,50.70
2019-06-08T16:00:09.590Z,49.40
2019-06-08T16:02:36.546Z,47.90
2019-06-08T16:05:08.162Z,48.00
2019-06-08T16:07:36.390Z,48.40
2019-06-08T16:10:07.428Z,50.00
2019-06-08T16:12:35.638Z,51.10
2019-06-08T16:15:05.799Z,49.50
2019-06-08T16:17:35.425Z,50.30
2019-06-08T16:20:04.861Z,51.40
2019-06-08T16:22:33.863Z,50.00
2019-06-08T16:25:02.156Z,50.00
2019-06-08T16:27:30.354Z,49.70
2019-06-08T16:29:58.563Z,49.10
2019-06-08T16:32:27.399Z,50.20
2019-06-08T16:34:55.696Z,50.90
2019-06-08T16:37:23.883Z,50.40
2019-06-08T16:39:52.099Z,50.80
2019-06-08T16:42:20.371Z,52.20
2019-06-08T16:44:48.586Z,51.10
2019-06-08T16:47:16.806Z,51.80
2019-06-08T16:49:45.023Z,50.90
2019-06-08T16:52:13.221Z,51.90
2019-06-08T16:54:41.447Z,52.50
2019-06-08T16:57:11.032Z,51.80
2019-06-08T16:59:39.533Z,53.10
2019-06-08T17:02:07.829Z,53.20
2019-06-08T17:04:37.108Z,53.30
2019-06-08T17:07:05.408Z,51.90
2019-06-08T17:09:34.238Z,53.10
2019-06-08T17:12:02.621Z,53.60
2019-06-08T17:14:31.965Z,53.70
2019-06-08T17:17:00.313Z,53.20
2019-06-08T17:19:29.859Z,54.20
2019-06-08T17:21:58.208Z,54.10
2019-06-08T17:24:26.427Z,54.90
2019-06-08T17:26:54.624Z,55.30
2019-06-08T17:29:22.839Z,55.00
2019-06-08T17:31:51.050Z,55.20
2019-06-08T17:34:20.711Z,55.30
2019-06-08T17:36:49.145Z,55.50
2019-06-08T17:39:17.362Z,56.30
2019-06-08T17:41:45.574Z,57.20
2019-06-08T17:44:13.776Z,56.70
2019-06-08T17:46:43.121Z,57.50
2019-06-08T17:49:11.370Z,58.40
2019-06-08T17:51:41.669Z,58.70
2019-06-08T17:54:09.532Z,57.00
2019-06-08T17:56:39.084Z,57.80
2019-06-08T17:59:07.323Z,58.30
2019-06-08T18:01:35.956Z,57.90
2019-06-08T18:04:04.237Z,58.10
2019-06-08T18:06:33.582Z,58.50
2019-06-08T18:09:01.929Z,58.50
2019-06-08T18:11:30.141Z,58.70
2019-06-08T18:13:58.936Z,59.40
2019-06-08T18:16:27.873Z,60.70
2019-06-08T18:18:57.734Z,60.50
2019-06-08T18:21:28.199Z,60.00
2019-06-08T18:23:57.226Z,60.20
2019-06-08T18:26:27.679Z,60.90
2019-06-08T18:28:57.980Z,61.90
2019-06-08T18:31:27.493Z,62.10
2019-06-08T18:33:57.717Z,62.60
2019-06-08T18:36:27.549Z,63.20
2019-06-08T18:38:57.982Z,62.70
2019-06-08T18:41:27.024Z,63.50
2019-06-08T18:43:55.072Z,63.90
2019-06-08T18:46:23.366Z,64.50
2019-06-08T18:48:51.572Z,65.20
2019-06-08T18:51:19.798Z,67.60
2019-06-08T18:54:06.707Z,68.30
2019-06-08T18:56:18.364Z,67.40
2019-06-08T18:58:51.530Z,67.40
2019-06-08T19:01:21.549Z,68.00
2019-06-08T19:03:50.317Z,69.10
2019-06-08T19:06:18.720Z,69.70
2019-06-08T19:08:49.209Z,69.50
2019-06-08T19:11:16.776Z,69.00
2019-06-08T19:13:47.394Z,69.50
2019-06-08T19:16:18.041Z,69.20
2019-06-08T19:18:49.751Z,69.20
2019-06-08T19:21:17.685Z,69.00
2019-06-08T19:23:47.692Z,70.20
2019-06-08T19:26:17.230Z,70.90
2019-06-08T19:28:51.484Z,71.30
2019-06-08T19:31:17.486Z,72.50
2019-06-08T19:33:48.159Z,72.90
2019-06-08T19:36:17.002Z,73.10
2019-06-08T19:38:52.066Z,73.10
2019-06-08T19:41:14.852Z,73.30
2019-06-08T19:43:43.604Z,73.90
2019-06-08T19:46:12.841Z,73.90
2019-06-08T19:48:42.713Z,74.70
2019-06-08T19:51:11.032Z,75.20
2019-06-08T19:53:44.439Z,76.20
2019-06-08T19:56:09.180Z,76.60
2019-06-08T19:58:50.594Z,77.00
2019-06-08T20:01:07.445Z,76.30
2019-06-08T20:03:37.391Z,76.50
2019-06-08T20:06:05.621Z,76.90
2019-06-08T20:08:33.821Z,78.10
2019-06-08T20:11:02.025Z,78.00
2019-06-08T20:13:30.233Z,77.90
2019-06-08T20:16:02.021Z,78.20
2019-06-08T20:18:28.376Z,79.20
2019-06-08T20:20:58.643Z,79.50
2019-06-08T20:23:27.578Z,80.10
2019-06-08T20:25:57.460Z,79.10
2019-06-08T20:28:28.098Z,78.60
2019-06-08T20:30:57.784Z,77.70
2019-06-08T20:33:27.240Z,78.20
2019-06-08T20:35:55.541Z,78.80
2019-06-08T20:38:35.096Z,79.20
2019-06-08T20:40:53.677Z,79.50
2019-06-08T20:43:21.877Z,80.20
2019-06-08T20:45:51.787Z,80.20
2019-06-08T20:48:20.020Z,80.90
2019-06-08T20:50:49.685Z,80.90
2019-06-08T20:53:18.144Z,81.50
2019-06-08T20:55:48.230Z,83.20
2019-06-08T20:58:17.701Z,84.00
2019-06-08T21:00:48.093Z,84.90
2019-06-08T21:03:17.518Z,84.90
2019-06-08T21:05:48.164Z,85.40
2019-06-08T21:08:17.467Z,86.30
2019-06-08T21:10:47.623Z,87.50
2019-06-08T21:13:17.814Z,87.80
2019-06-08T21:15:50.146Z,88.60
2019-06-08T21:18:15.549Z,88.40
2019-06-08T21:20:45.581Z,88.20
2019-06-08T21:23:13.680Z,88.80
2019-06-08T21:25:41.880Z,89.20
2019-06-08T21:28:10.084Z,89.10
2019-06-08T21:30:38.290Z,89.40
2019-06-08T21:33:08.232Z,90.00
2019-06-08T21:35:36.417Z,90.20
2019-06-08T21:38:17.035Z,90.40
2019-06-08T21:40:34.541Z,90.60
2019-06-08T21:43:02.748Z,90.80
2019-06-08T21:45:30.945Z,91.00
2019-06-08T21:48:00.529Z,91.20
2019-06-08T21:50:28.831Z,91.30
2019-06-08T21:53:00.323Z,91.40
2019-06-08T21:55:27.308Z,91.60
2019-06-08T21:57:59.873Z,91.90
2019-06-08T22:00:38.668Z,92.10
2019-06-08T22:02:58.177Z,92.30
2019-06-08T22:05:25.405Z,92.70
2019-06-08T22:07:54.042Z,92.90
2019-06-08T22:10:22.292Z,93.10
2019-06-08T22:12:52.033Z,93.10
2019-06-08T22:15:20.453Z,93.10
2019-06-08T22:17:48.716Z,93.10
2019-06-08T22:20:18.652Z,93.20
2019-06-08T22:22:47.456Z,93.40
2019-06-08T22:25:17.697Z,93.60
2019-06-08T22:27:45.932Z,93.70
2019-06-08T22:30:28.956Z,93.90
2019-06-08T22:32:44.056Z,94.00
2019-06-08T22:35:12.268Z,94.10
2019-06-08T22:37:40.475Z,94.20
2019-06-08T22:40:08.940Z,94.20
2019-06-08T22:42:37.569Z,94.50
2019-06-08T22:45:09.136Z,94.60
2019-06-08T22:47:38.831Z,94.50
2019-06-08T22:50:07.914Z,94.60
2019-06-08T22:52:37.548Z,94.80
2019-06-08T22:55:10.268Z,94.70
2019-06-08T22:57:37.739Z,94.80
2019-06-08T23:00:14.518Z,95.00
2019-06-08T23:02:38.394Z,95.20
2019-06-08T23:05:09.392Z,95.40
2019-06-08T23:07:37.777Z,95.50
2019-06-08T23:10:08.855Z,95.50
2019-06-08T23:12:38.168Z,95.50
2019-06-08T23:15:07.827Z,95.80
2019-06-08T23:17:38.534Z,95.80
2019-06-08T23:20:08.386Z,96.10
2019-06-08T23:22:38.160Z,96.20
2019-06-08T23:25:08.909Z,96.30
2019-06-08T23:27:37.949Z,96.40
2019-06-08T23:30:09.668Z,96.40
2019-06-08T23:32:38.382Z,96.40
2019-06-08T23:35:08.868Z,96.40
2019-06-08T23:37:37.392Z,96.50
2019-06-08T23:40:05.780Z,96.50
2019-06-08T23:42:33.987Z,96.60
2019-06-08T23:45:02.373Z,96.60
2019-06-08T23:47:30.565Z,96.90
2019-06-08T23:50:00.723Z,97.00
2019-06-08T23:52:28.693Z,97.10
2019-06-08T23:54:59.454Z,97.20
2019-06-08T23:57:27.265Z,97.10
2019-06-08T23:59:55.504Z,97.00
